sensor_id;sensor_type;location;lat;lon;timestamp;pressure;altitude;pressure_sealevel;temperature
20867;BMP280;10593;48.398;10.698;2023-11-19T00:00:22;96212.06;;;13.21
20867;BMP280;10593;48.398;10.698;2023-11-19T00:02:49;96211.16;;;13.22
20867;BMP280;10593;48.398;10.698;2023-11-19T00:05:14;96211.16;;;13.22
20867;BMP280;10593;48.398;10.698;2023-11-19T00:07:40;96202.59;;;13.22
20867;BMP280;10593;48.398;10.698;2023-11-19T00:10:11;96198.25;;;13.22
20867;BMP280;10593;48.398;10.698;2023-11-19T00:12:40;96189.63;;;13.23
20867;BMP280;10593;48.398;10.698;2023-11-19T00:15:08;96188.81;;;13.23
20867;BMP280;10593;48.398;10.698;2023-11-19T00:17:41;96181.97;;;13.22
20867;BMP280;10593;48.398;10.698;2023-11-19T00:20:14;96181.06;;;13.23
20867;BMP280;10593;48.398;10.698;2023-11-19T00:22:41;96178.47;;;13.23
20867;BMP280;10593;48.398;10.698;2023-11-19T00:25:09;96177.59;;;13.24
20867;BMP280;10593;48.398;10.698;2023-11-19T00:27:38;96176.69;;;13.25
20867;BMP280;10593;48.398;10.698;2023-11-19T00:30:07;96171.53;;;13.25
20867;BMP280;10593;48.398;10.698;2023-11-19T00:32:36;96159.53;;;13.24
20867;BMP280;10593;48.398;10.698;2023-11-19T00:35:05;96146.63;;;13.24
20867;BMP280;10593;48.398;10.698;2023-11-19T00:37:32;96145.75;;;13.25
20867;BMP280;10593;48.398;10.698;2023-11-19T00:39:57;96138.00;;;13.25
20867;BMP280;10593;48.398;10.698;2023-11-19T00:42:24;96131.94;;;13.26
20867;BMP280;10593;48.398;10.698;2023-11-19T00:44:52;96123.31;;;13.27
20867;BMP280;10593;48.398;10.698;2023-11-19T00:47:18;96123.31;;;13.27
20867;BMP280;10593;48.398;10.698;2023-11-19T00:49:47;96120.72;;;13.27
20867;BMP280;10593;48.398;10.698;2023-11-19T00:52:17;96118.16;;;13.27
20867;BMP280;10593;48.398;10.698;2023-11-19T00:54:43;96118.16;;;13.27
20867;BMP280;10593;48.398;10.698;2023-11-19T00:57:09;96124.16;;;13.27
20867;BMP280;10593;48.398;10.698;2023-11-19T00:59:35;96126.75;;;13.27
20867;BMP280;10593;48.398;10.698;2023-11-19T01:02:00;96119.84;;;13.28
20867;BMP280;10593;48.398;10.698;2023-11-19T01:04:34;96124.09;;;13.29
20867;BMP280;10593;48.398;10.698;2023-11-19T01:07:03;96136.19;;;13.28
20867;BMP280;10593;48.398;10.698;2023-11-19T01:09:33;96135.31;;;13.28
20867;BMP280;10593;48.398;10.698;2023-11-19T01:12:02;96137.91;;;13.28
20867;BMP280;10593;48.398;10.698;2023-11-19T01:14:29;96139.59;;;13.29
20867;BMP280;10593;48.398;10.698;2023-11-19T01:16:55;96133.59;;;13.28
20867;BMP280;10593;48.398;10.698;2023-11-19T01:19:23;96130.13;;;13.29
20867;BMP280;10593;48.398;10.698;2023-11-19T01:21:50;96136.13;;;13.30
20867;BMP280;10593;48.398;10.698;2023-11-19T01:24:16;96127.50;;;13.31
20867;BMP280;10593;48.398;10.698;2023-11-19T01:26:44;96135.25;;;13.31
20867;BMP280;10593;48.398;10.698;2023-11-19T01:29:16;96126.63;;;13.32
20867;BMP280;10593;48.398;10.698;2023-11-19T01:31:42;96120.59;;;13.31
20867;BMP280;10593;48.398;10.698;2023-11-19T01:34:09;96108.56;;;13.32
20867;BMP280;10593;48.398;10.698;2023-11-19T01:36:35;96119.69;;;13.32
20867;BMP280;10593;48.398;10.698;2023-11-19T01:39:01;96105.06;;;13.33
20867;BMP280;10593;48.398;10.698;2023-11-19T01:41:27;96105.06;;;13.33
20867;BMP280;10593;48.398;10.698;2023-11-19T01:43:53;96095.59;;;13.33
20867;BMP280;10593;48.398;10.698;2023-11-19T01:46:19;96095.53;;;13.35
20867;BMP280;10593;48.398;10.698;2023-11-19T01:48:46;96093.78;;;13.35
20867;BMP280;10593;48.398;10.698;2023-11-19T01:51:16;96087.75;;;13.36
20867;BMP280;10593;48.398;10.698;2023-11-19T01:53:43;96078.28;;;13.37
20867;BMP280;10593;48.398;10.698;2023-11-19T01:56:12;96090.28;;;13.38
20867;BMP280;10593;48.398;10.698;2023-11-19T01:58:40;96075.66;;;13.38
20867;BMP280;10593;48.398;10.698;2023-11-19T02:01:06;96068.78;;;13.37
20867;BMP280;10593;48.398;10.698;2023-11-19T02:03:33;96062.69;;;13.40
20867;BMP280;10593;48.398;10.698;2023-11-19T02:06:00;96062.69;;;13.40
20867;BMP280;10593;48.398;10.698;2023-11-19T02:08:26;96061.78;;;13.41
20867;BMP280;10593;48.398;10.698;2023-11-19T02:10:52;96076.38;;;13.42
20867;BMP280;10593;48.398;10.698;2023-11-19T02:13:22;96065.22;;;13.41
20867;BMP280;10593;48.398;10.698;2023-11-19T02:15:48;96070.31;;;13.43
20867;BMP280;10593;48.398;10.698;2023-11-19T02:18:35;96072.91;;;13.43
20867;BMP280;10593;48.398;10.698;2023-11-19T02:21:01;96062.59;;;13.43
20867;BMP280;10593;48.398;10.698;2023-11-19T02:23:28;96054.81;;;13.44
20867;BMP280;10593;48.398;10.698;2023-11-19T02:28:56;96036.78;;;13.43
20867;BMP280;10593;48.398;10.698;2023-11-19T02:31:22;96033.31;;;13.44
20867;BMP280;10593;48.398;10.698;2023-11-19T02:33:48;96015.19;;;13.45
20867;BMP280;10593;48.398;10.698;2023-11-19T02:36:15;96022.91;;;13.47
20867;BMP280;10593;48.398;10.698;2023-11-19T02:38:42;96017.75;;;13.47
20867;BMP280;10593;48.398;10.698;2023-11-19T02:41:09;96019.44;;;13.48
20867;BMP280;10593;48.398;10.698;2023-11-19T02:43:36;96014.19;;;13.49
20867;BMP280;10593;48.398;10.698;2023-11-19T02:46:04;96016.78;;;13.49
20867;BMP280;10593;48.398;10.698;2023-11-19T02:48:35;96016.78;;;13.49
20867;BMP280;10593;48.398;10.698;2023-11-19T02:51:02;96021.00;;;13.52
20867;BMP280;10593;48.398;10.698;2023-11-19T02:53:29;96015.84;;;13.52
20867;BMP280;10593;48.398;10.698;2023-11-19T02:55:55;96022.69;;;13.53
20867;BMP280;10593;48.398;10.698;2023-11-19T02:58:27;96020.97;;;13.53
20867;BMP280;10593;48.398;10.698;2023-11-19T03:00:55;96016.59;;;13.55
20867;BMP280;10593;48.398;10.698;2023-11-19T03:03:25;96018.31;;;13.55
20867;BMP280;10593;48.398;10.698;2023-11-19T03:05:57;96014.00;;;13.55
20867;BMP280;10593;48.398;10.698;2023-11-19T03:08:22;96007.09;;;13.56
20867;BMP280;10593;48.398;10.698;2023-11-19T03:10:48;96004.47;;;13.57
20867;BMP280;10593;48.398;10.698;2023-11-19T03:13:15;96004.47;;;13.57
20867;BMP280;10593;48.398;10.698;2023-11-19T03:15:42;96010.50;;;13.58
20867;BMP280;10593;48.398;10.698;2023-11-19T03:18:08;96017.34;;;13.59
20867;BMP280;10593;48.398;10.698;2023-11-19T03:20:34;96016.44;;;13.60
20867;BMP280;10593;48.398;10.698;2023-11-19T03:22:59;96013.88;;;13.60
20867;BMP280;10593;48.398;10.698;2023-11-19T03:25:27;96014.69;;;13.60
20867;BMP280;10593;48.398;10.698;2023-11-19T03:27:59;96022.41;;;13.62
20867;BMP280;10593;48.398;10.698;2023-11-19T03:30:26;96006.00;;;13.63
20867;BMP280;10593;48.398;10.698;2023-11-19T03:32:52;96006.00;;;13.63
20867;BMP280;10593;48.398;10.698;2023-11-19T03:35:18;96012.00;;;13.63
20867;BMP280;10593;48.398;10.698;2023-11-19T03:37:43;96011.16;;;13.63
20867;BMP280;10593;48.398;10.698;2023-11-19T03:40:10;96012.81;;;13.65
20867;BMP280;10593;48.398;10.698;2023-11-19T03:42:36;96005.91;;;13.66
20867;BMP280;10593;48.398;10.698;2023-11-19T03:45:02;96007.66;;;13.65
20867;BMP280;10593;48.398;10.698;2023-11-19T03:47:29;96008.47;;;13.66
20867;BMP280;10593;48.398;10.698;2023-11-19T03:49:55;96011.03;;;13.67
20867;BMP280;10593;48.398;10.698;2023-11-19T03:52:21;96011.91;;;13.66
20867;BMP280;10593;48.398;10.698;2023-11-19T03:54:46;96022.19;;;13.68
20867;BMP280;10593;48.398;10.698;2023-11-19T03:57:14;96015.28;;;13.68
20867;BMP280;10593;48.398;10.698;2023-11-19T03:59:41;96028.13;;;13.70
20867;BMP280;10593;48.398;10.698;2023-11-19T04:02:06;96028.13;;;13.70
20867;BMP280;10593;48.398;10.698;2023-11-19T04:04:33;96031.53;;;13.72
20867;BMP280;10593;48.398;10.698;2023-11-19T04:07:00;96027.16;;;13.74
20867;BMP280;10593;48.398;10.698;2023-11-19T04:09:26;96028.06;;;13.73
20867;BMP280;10593;48.398;10.698;2023-11-19T04:11:55;96027.97;;;13.74
20867;BMP280;10593;48.398;10.698;2023-11-19T04:14:20;96028.84;;;13.75
20867;BMP280;10593;48.398;10.698;2023-11-19T04:16:46;96027.09;;;13.75
20867;BMP280;10593;48.398;10.698;2023-11-19T04:19:12;96034.00;;;13.75
20867;BMP280;10593;48.398;10.698;2023-11-19T04:21:40;96035.69;;;13.76
20867;BMP280;10593;48.398;10.698;2023-11-19T04:24:08;96031.31;;;13.78
20867;BMP280;10593;48.398;10.698;2023-11-19T04:26:34;96031.31;;;13.78
20867;BMP280;10593;48.398;10.698;2023-11-19T04:29:00;96018.41;;;13.78
20867;BMP280;10593;48.398;10.698;2023-11-19T04:31:31;96017.47;;;13.80
20867;BMP280;10593;48.398;10.698;2023-11-19T04:33:57;96030.41;;;13.79
20867;BMP280;10593;48.398;10.698;2023-11-19T04:36:24;96026.94;;;13.80
20867;BMP280;10593;48.398;10.698;2023-11-19T04:38:50;96019.16;;;13.81
20867;BMP280;10593;48.398;10.698;2023-11-19T04:41:16;96025.13;;;13.82
20867;BMP280;10593;48.398;10.698;2023-11-19T04:43:41;96031.16;;;13.82
20867;BMP280;10593;48.398;10.698;2023-11-19T04:46:09;96033.69;;;13.84
20867;BMP280;10593;48.398;10.698;2023-11-19T04:48:35;96018.19;;;13.84
20867;BMP280;10593;48.398;10.698;2023-11-19T04:51:00;96028.50;;;13.84
20867;BMP280;10593;48.398;10.698;2023-11-19T04:53:26;96019.81;;;13.86
20867;BMP280;10593;48.398;10.698;2023-11-19T04:55:52;96021.59;;;13.86
20867;BMP280;10593;48.398;10.698;2023-11-19T04:58:17;96020.69;;;13.87
20867;BMP280;10593;48.398;10.698;2023-11-19T05:00:44;96013.75;;;13.87
20867;BMP280;10593;48.398;10.698;2023-11-19T05:03:10;96021.47;;;13.89
20867;BMP280;10593;48.398;10.698;2023-11-19T05:05:36;96019.69;;;13.91
20867;BMP280;10593;48.398;10.698;2023-11-19T05:08:02;96021.41;;;13.90
20867;BMP280;10593;48.398;10.698;2023-11-19T05:10:28;96014.50;;;13.91
20867;BMP280;10593;48.398;10.698;2023-11-19T05:12:53;96023.94;;;13.92
20867;BMP280;10593;48.398;10.698;2023-11-19T05:15:21;96035.06;;;13.94
20867;BMP280;10593;48.398;10.698;2023-11-19T05:17:47;96039.41;;;13.93
20867;BMP280;10593;48.398;10.698;2023-11-19T05:20:13;96029.00;;;13.95
20867;BMP280;10593;48.398;10.698;2023-11-19T05:22:41;96024.69;;;13.95
20867;BMP280;10593;48.398;10.698;2023-11-19T05:25:07;96024.63;;;13.97
20867;BMP280;10593;48.398;10.698;2023-11-19T05:27:35;96039.22;;;13.98
20867;BMP280;10593;48.398;10.698;2023-11-19T05:30:02;96046.97;;;13.98
20867;BMP280;10593;48.398;10.698;2023-11-19T05:32:28;96034.91;;;13.98
20867;BMP280;10593;48.398;10.698;2023-11-19T05:34:53;96032.28;;;14.00
20867;BMP280;10593;48.398;10.698;2023-11-19T05:37:19;96026.22;;;14.01
20867;BMP280;10593;48.398;10.698;2023-11-19T05:39:45;96028.72;;;14.02
20867;BMP280;10593;48.398;10.698;2023-11-19T05:42:11;96021.84;;;14.03
20867;BMP280;10593;48.398;10.698;2023-11-19T05:44:37;96036.44;;;14.04
20867;BMP280;10593;48.398;10.698;2023-11-19T05:47:03;96030.38;;;14.05
20867;BMP280;10593;48.398;10.698;2023-11-19T05:49:29;96033.81;;;14.05
20867;BMP280;10593;48.398;10.698;2023-11-19T05:51:55;96020.00;;;14.06
20867;BMP280;10593;48.398;10.698;2023-11-19T05:54:21;96010.50;;;14.07
20867;BMP280;10593;48.398;10.698;2023-11-19T05:56:50;96026.78;;;14.09
20867;BMP280;10593;48.398;10.698;2023-11-19T05:59:16;96023.38;;;14.08
20867;BMP280;10593;48.398;10.698;2023-11-19T06:01:44;96028.53;;;14.08
20867;BMP280;10593;48.398;10.698;2023-11-19T06:04:09;96026.75;;;14.10
20867;BMP280;10593;48.398;10.698;2023-11-19T06:06:36;96036.19;;;14.11
20867;BMP280;10593;48.398;10.698;2023-11-19T06:09:03;96036.19;;;14.11
20867;BMP280;10593;48.398;10.698;2023-11-19T06:11:29;96035.28;;;14.12
20867;BMP280;10593;48.398;10.698;2023-11-19T06:13:54;96034.38;;;14.13
20867;BMP280;10593;48.398;10.698;2023-11-19T06:16:20;96028.31;;;14.14
20867;BMP280;10593;48.398;10.698;2023-11-19T06:18:46;96032.59;;;14.15
20867;BMP280;10593;48.398;10.698;2023-11-19T06:21:12;96030.84;;;14.16
20867;BMP280;10593;48.398;10.698;2023-11-19T06:23:38;96032.56;;;14.17
20867;BMP280;10593;48.398;10.698;2023-11-19T06:26:04;96039.41;;;14.18
20867;BMP280;10593;48.398;10.698;2023-11-19T06:28:31;96044.59;;;14.18
20867;BMP280;10593;48.398;10.698;2023-11-19T06:30:57;96051.44;;;14.19
20867;BMP280;10593;48.398;10.698;2023-11-19T06:33:24;96045.38;;;14.20
20867;BMP280;10593;48.398;10.698;2023-11-19T06:35:50;96050.53;;;14.20
20867;BMP280;10593;48.398;10.698;2023-11-19T06:38:16;96049.66;;;14.21
20867;BMP280;10593;48.398;10.698;2023-11-19T06:40:41;96045.34;;;14.21
20867;BMP280;10593;48.398;10.698;2023-11-19T06:43:07;96053.00;;;14.23
20867;BMP280;10593;48.398;10.698;2023-11-19T06:45:34;96055.59;;;14.23
20867;BMP280;10593;48.398;10.698;2023-11-19T06:48:04;96059.88;;;14.24
20867;BMP280;10593;48.398;10.698;2023-11-19T06:50:31;96063.28;;;14.26
20867;BMP280;10593;48.398;10.698;2023-11-19T06:52:57;96058.94;;;14.26
20867;BMP280;10593;48.398;10.698;2023-11-19T06:55:23;96046.00;;;14.26
20867;BMP280;10593;48.398;10.698;2023-11-19T06:57:48;96057.13;;;14.28
20867;BMP280;10593;48.398;10.698;2023-11-19T07:00:14;96055.41;;;14.29
20867;BMP280;10593;48.398;10.698;2023-11-19T07:02:40;96059.66;;;14.30
20867;BMP280;10593;48.398;10.698;2023-11-19T07:05:06;96065.66;;;14.30
20867;BMP280;10593;48.398;10.698;2023-11-19T07:07:33;96062.19;;;14.31
20867;BMP280;10593;48.398;10.698;2023-11-19T07:10:00;96054.38;;;14.33
20867;BMP280;10593;48.398;10.698;2023-11-19T07:12:27;96070.69;;;14.35
20867;BMP280;10593;48.398;10.698;2023-11-19T07:14:53;96073.25;;;14.35
20867;BMP280;10593;48.398;10.698;2023-11-19T07:17:20;96072.38;;;14.36
20867;BMP280;10593;48.398;10.698;2023-11-19T07:19:49;96078.41;;;14.36
20867;BMP280;10593;48.398;10.698;2023-11-19T07:22:15;96083.50;;;14.38
20867;BMP280;10593;48.398;10.698;2023-11-19T07:24:41;96087.78;;;14.39
20867;BMP280;10593;48.398;10.698;2023-11-19T07:27:07;96080.81;;;14.41
20867;BMP280;10593;48.398;10.698;2023-11-19T07:29:35;96084.19;;;14.43
20867;BMP280;10593;48.398;10.698;2023-11-19T07:32:01;96078.13;;;14.44
20867;BMP280;10593;48.398;10.698;2023-11-19T07:34:30;96086.69;;;14.44
20867;BMP280;10593;48.398;10.698;2023-11-19T07:36:56;96085.84;;;14.45
20867;BMP280;10593;48.398;10.698;2023-11-19T07:39:25;96079.69;;;14.48
20867;BMP280;10593;48.398;10.698;2023-11-19T07:41:51;96080.47;;;14.50
20867;BMP280;10593;48.398;10.698;2023-11-19T07:44:17;96078.75;;;14.50
20867;BMP280;10593;48.398;10.698;2023-11-19T07:46:42;96081.25;;;14.52
20867;BMP280;10593;48.398;10.698;2023-11-19T07:49:10;96072.63;;;14.53
20867;BMP280;10593;48.398;10.698;2023-11-19T07:51:36;96073.41;;;14.55
20867;BMP280;10593;48.398;10.698;2023-11-19T07:54:02;96074.22;;;14.57
20867;BMP280;10593;48.398;10.698;2023-11-19T07:56:29;96073.31;;;14.58
20867;BMP280;10593;48.398;10.698;2023-11-19T07:58:55;96080.13;;;14.60
20867;BMP280;10593;48.398;10.698;2023-11-19T08:01:21;96078.31;;;14.62
20867;BMP280;10593;48.398;10.698;2023-11-19T08:03:49;96086.84;;;14.64
20867;BMP280;10593;48.398;10.698;2023-11-19T08:06:14;96082.50;;;14.64
20867;BMP280;10593;48.398;10.698;2023-11-19T08:08:40;96090.19;;;14.68
20867;BMP280;10593;48.398;10.698;2023-11-19T08:11:06;96096.13;;;14.69
20867;BMP280;10593;48.398;10.698;2023-11-19T08:13:32;96096.03;;;14.72
20867;BMP280;10593;48.398;10.698;2023-11-19T08:15:58;96075.34;;;14.72
20867;BMP280;10593;48.398;10.698;2023-11-19T08:18:24;96092.50;;;14.75
20867;BMP280;10593;48.398;10.698;2023-11-19T08:20:50;96096.69;;;14.77
20867;BMP280;10593;48.398;10.698;2023-11-19T08:23:19;96096.66;;;14.79
20867;BMP280;10593;48.398;10.698;2023-11-19T08:25:46;96090.53;;;14.81
20867;BMP280;10593;48.398;10.698;2023-11-19T08:28:11;96088.72;;;14.83
20867;BMP280;10593;48.398;10.698;2023-11-19T08:30:37;96091.22;;;14.85
20867;BMP280;10593;48.398;10.698;2023-11-19T08:33:03;96097.22;;;14.87
20867;BMP280;10593;48.398;10.698;2023-11-19T08:35:31;96105.75;;;14.89
20867;BMP280;10593;48.398;10.698;2023-11-19T08:37:57;96098.78;;;14.91
20867;BMP280;10593;48.398;10.698;2023-11-19T08:40:23;96086.63;;;14.93
20867;BMP280;10593;48.398;10.698;2023-11-19T08:42:48;96090.00;;;14.95
20867;BMP280;10593;48.398;10.698;2023-11-19T08:45:14;96083.03;;;14.97
20867;BMP280;10593;48.398;10.698;2023-11-19T08:47:40;96085.53;;;15.00
20867;BMP280;10593;48.398;10.698;2023-11-19T08:50:06;96085.41;;;15.03
20867;BMP280;10593;48.398;10.698;2023-11-19T08:52:32;96090.50;;;15.04
20867;BMP280;10593;48.398;10.698;2023-11-19T08:54:58;96085.22;;;15.07
20867;BMP280;10593;48.398;10.698;2023-11-19T08:57:23;96095.50;;;15.09
20867;BMP280;10593;48.398;10.698;2023-11-19T08:59:49;96091.97;;;15.11
20867;BMP280;10593;48.398;10.698;2023-11-19T09:02:15;96096.25;;;15.12
20867;BMP280;10593;48.398;10.698;2023-11-19T09:04:41;96086.66;;;15.14
20867;BMP280;10593;48.398;10.698;2023-11-19T09:07:06;96090.03;;;15.16
20867;BMP280;10593;48.398;10.698;2023-11-19T09:09:35;96090.81;;;15.18
20867;BMP280;10593;48.398;10.698;2023-11-19T09:12:03;96088.19;;;15.20
20867;BMP280;10593;48.398;10.698;2023-11-19T09:14:31;96096.69;;;15.23
20867;BMP280;10593;48.398;10.698;2023-11-19T09:16:57;96099.28;;;15.23
20867;BMP280;10593;48.398;10.698;2023-11-19T09:19:24;96100.81;;;15.27
20867;BMP280;10593;48.398;10.698;2023-11-19T09:21:50;96097.34;;;15.28
20867;BMP280;10593;48.398;10.698;2023-11-19T09:24:16;96097.19;;;15.33
20867;BMP280;10593;48.398;10.698;2023-11-19T09:26:41;96089.44;;;15.33
20867;BMP280;10593;48.398;10.698;2023-11-19T09:29:08;96079.81;;;15.36
20867;BMP280;10593;48.398;10.698;2023-11-19T09:31:33;96082.28;;;15.39
20867;BMP280;10593;48.398;10.698;2023-11-19T09:34:01;96072.69;;;15.41
20867;BMP280;10593;48.398;10.698;2023-11-19T09:36:27;96065.69;;;15.43
20867;BMP280;10593;48.398;10.698;2023-11-19T09:38:52;96066.47;;;15.45
20867;BMP280;10593;48.398;10.698;2023-11-19T09:41:19;96055.13;;;15.49
20867;BMP280;10593;48.398;10.698;2023-11-19T09:43:45;96063.66;;;15.51
20867;BMP280;10593;48.398;10.698;2023-11-19T09:46:12;96061.84;;;15.53
20867;BMP280;10593;48.398;10.698;2023-11-19T09:48:39;96064.31;;;15.56
20867;BMP280;10593;48.398;10.698;2023-11-19T09:51:10;96065.94;;;15.59
20867;BMP280;10593;48.398;10.698;2023-11-19T09:53:37;96064.09;;;15.62
20867;BMP280;10593;48.398;10.698;2023-11-19T09:56:05;96061.38;;;15.65
20867;BMP280;10593;48.398;10.698;2023-11-19T09:58:32;96061.25;;;15.68
20867;BMP280;10593;48.398;10.698;2023-11-19T10:00:58;96058.50;;;15.71
20867;BMP280;10593;48.398;10.698;2023-11-19T10:03:36;96055.81;;;15.74
20867;BMP280;10593;48.398;10.698;2023-11-19T10:06:09;96053.94;;;15.78
20867;BMP280;10593;48.398;10.698;2023-11-19T10:08:40;96057.31;;;15.80
20867;BMP280;10593;48.398;10.698;2023-11-19T10:11:07;96058.88;;;15.84
20867;BMP280;10593;48.398;10.698;2023-11-19T10:13:35;96068.28;;;15.86
20867;BMP280;10593;48.398;10.698;2023-11-19T10:16:28;96057.78;;;15.89
20867;BMP280;10593;48.398;10.698;2023-11-19T10:18:56;96056.78;;;15.92
20867;BMP280;10593;48.398;10.698;2023-11-19T10:21:21;96066.97;;;15.96
20867;BMP280;10593;48.398;10.698;2023-11-19T10:23:49;96051.28;;;15.99
20867;BMP280;10593;48.398;10.698;2023-11-19T10:26:16;96039.13;;;16.01
20867;BMP280;10593;48.398;10.698;2023-11-19T10:28:41;96054.56;;;16.04
20867;BMP280;10593;48.398;10.698;2023-11-19T10:31:09;96064.78;;;16.07
20867;BMP280;10593;48.398;10.698;2023-11-19T10:33:35;96062.06;;;16.10
20867;BMP280;10593;48.398;10.698;2023-11-19T10:36:01;96067.13;;;16.13
20867;BMP280;10593;48.398;10.698;2023-11-19T10:38:26;96060.13;;;16.15
20867;BMP280;10593;48.398;10.698;2023-11-19T10:40:53;96056.53;;;16.18
20867;BMP280;10593;48.398;10.698;2023-11-19T10:43:21;96052.94;;;16.22
20867;BMP280;10593;48.398;10.698;2023-11-19T10:45:49;96044.16;;;16.24
20867;BMP280;10593;48.398;10.698;2023-11-19T10:48:15;96049.25;;;16.27
20867;BMP280;10593;48.398;10.698;2023-11-19T10:50:43;96045.66;;;16.30
20867;BMP280;10593;48.398;10.698;2023-11-19T10:53:11;96048.09;;;16.33
20867;BMP280;10593;48.398;10.698;2023-11-19T10:55:41;96041.06;;;16.36
20867;BMP280;10593;48.398;10.698;2023-11-19T10:58:09;96033.25;;;16.38
20867;BMP280;10593;48.398;10.698;2023-11-19T11:00:48;96016.72;;;16.40
20867;BMP280;10593;48.398;10.698;2023-11-19T11:03:21;96015.72;;;16.43
20867;BMP280;10593;48.398;10.698;2023-11-19T11:05:52;96021.69;;;16.45
20867;BMP280;10593;48.398;10.698;2023-11-19T11:08:20;96017.25;;;16.47
20867;BMP280;10593;48.398;10.698;2023-11-19T11:10:52;96010.19;;;16.50
20867;BMP280;10593;48.398;10.698;2023-11-19T11:13:18;96014.34;;;16.54
20867;BMP280;10593;48.398;10.698;2023-11-19T11:15:45;96010.84;;;16.55
20867;BMP280;10593;48.398;10.698;2023-11-19T11:18:13;96003.69;;;16.60
20867;BMP280;10593;48.398;10.698;2023-11-19T11:20:39;95993.16;;;16.63
20867;BMP280;10593;48.398;10.698;2023-11-19T11:32:51;95984.13;;;16.72
20867;BMP280;10593;48.398;10.698;2023-11-19T11:35:57;95992.56;;;16.77
20867;BMP280;10593;48.398;10.698;2023-11-19T11:38:28;95986.31;;;16.81
20867;BMP280;10593;48.398;10.698;2023-11-19T11:41:23;95989.53;;;16.85
20867;BMP280;10593;48.398;10.698;2023-11-19T11:43:54;95985.03;;;16.89
20867;BMP280;10593;48.398;10.698;2023-11-19T11:49:25;95988.97;;;16.97
20867;BMP280;10593;48.398;10.698;2023-11-19T11:51:58;95990.44;;;17.03
20867;BMP280;10593;48.398;10.698;2023-11-19T11:57:13;95995.25;;;17.10
20867;BMP280;10593;48.398;10.698;2023-11-19T11:59:45;95985.56;;;17.14
20867;BMP280;10593;48.398;10.698;2023-11-19T12:02:17;95976.72;;;17.18
20867;BMP280;10593;48.398;10.698;2023-11-19T12:04:47;95979.09;;;17.22
20867;BMP280;10593;48.398;10.698;2023-11-19T12:07:23;95983.16;;;17.28
20867;BMP280;10593;48.398;10.698;2023-11-19T12:10:05;95988.22;;;17.31
20867;BMP280;10593;48.398;10.698;2023-11-19T12:12:39;95985.44;;;17.34
20867;BMP280;10593;48.398;10.698;2023-11-19T12:15:09;95989.63;;;17.38
20867;BMP280;10593;48.398;10.698;2023-11-19T12:17:48;95988.56;;;17.42
20867;BMP280;10593;48.398;10.698;2023-11-19T12:20:16;95990.19;;;17.44
20867;BMP280;10593;48.398;10.698;2023-11-19T12:22:44;95990.88;;;17.48
20867;BMP280;10593;48.398;10.698;2023-11-19T12:25:12;95999.28;;;17.53
20867;BMP280;10593;48.398;10.698;2023-11-19T12:27:44;95997.38;;;17.56
20867;BMP280;10593;48.398;10.698;2023-11-19T12:30:11;95986.91;;;17.58
20867;BMP280;10593;48.398;10.698;2023-11-19T12:32:46;95987.66;;;17.60
20867;BMP280;10593;48.398;10.698;2023-11-19T12:35:13;95988.47;;;17.62
20867;BMP280;10593;48.398;10.698;2023-11-19T12:40:22;95989.88;;;17.67
20867;BMP280;10593;48.398;10.698;2023-11-19T12:42:50;95974.22;;;17.69
20867;BMP280;10593;48.398;10.698;2023-11-19T12:45:16;95970.72;;;17.70
20867;BMP280;10593;48.398;10.698;2023-11-19T12:47:45;95958.47;;;17.72
20867;BMP280;10593;48.398;10.698;2023-11-19T12:50:16;95955.81;;;17.73
20867;BMP280;10593;48.398;10.698;2023-11-19T12:52:56;95948.84;;;17.74
20867;BMP280;10593;48.398;10.698;2023-11-19T12:55:28;95943.50;;;17.77
20867;BMP280;10593;48.398;10.698;2023-11-19T12:57:55;95938.31;;;17.77
20867;BMP280;10593;48.398;10.698;2023-11-19T13:00:26;95940.81;;;17.78
20867;BMP280;10593;48.398;10.698;2023-11-19T13:02:55;95945.94;;;17.80
20867;BMP280;10593;48.398;10.698;2023-11-19T13:08:03;95942.44;;;17.81
20867;BMP280;10593;48.398;10.698;2023-11-19T13:10:31;95940.69;;;17.81
20867;BMP280;10593;48.398;10.698;2023-11-19T13:13:08;95942.25;;;17.84
20867;BMP280;10593;48.398;10.698;2023-11-19T13:15:35;95950.81;;;17.86
20867;BMP280;10593;48.398;10.698;2023-11-19T13:18:02;95936.91;;;17.87
20867;BMP280;10593;48.398;10.698;2023-11-19T13:20:28;95935.09;;;17.89
20867;BMP280;10593;48.398;10.698;2023-11-19T13:23:03;95938.44;;;17.91
20867;BMP280;10593;48.398;10.698;2023-11-19T13:25:30;95934.94;;;17.92
20867;BMP280;10593;48.398;10.698;2023-11-19T13:27:56;95923.59;;;17.93
20867;BMP280;10593;48.398;10.698;2023-11-19T13:30:23;95924.38;;;17.95
20867;BMP280;10593;48.398;10.698;2023-11-19T13:32:51;95913.03;;;17.96
20867;BMP280;10593;48.398;10.698;2023-11-19T13:35:18;95912.13;;;17.97
20867;BMP280;10593;48.398;10.698;2023-11-19T13:37:44;95912.06;;;17.98
20867;BMP280;10593;48.398;10.698;2023-11-19T13:40:12;95909.47;;;17.98
20867;BMP280;10593;48.398;10.698;2023-11-19T13:42:44;95899.88;;;17.99
20867;BMP280;10593;48.398;10.698;2023-11-19T13:45:14;95906.69;;;18.01
20867;BMP280;10593;48.398;10.698;2023-11-19T13:47:45;95893.69;;;18.01
20867;BMP280;10593;48.398;10.698;2023-11-19T13:50:14;95901.41;;;18.03
20867;BMP280;10593;48.398;10.698;2023-11-19T13:52:44;95897.91;;;18.04
20867;BMP280;10593;48.398;10.698;2023-11-19T13:55:12;95891.03;;;18.03
20867;BMP280;10593;48.398;10.698;2023-11-19T13:57:42;95892.59;;;18.05
20867;BMP280;10593;48.398;10.698;2023-11-19T14:00:10;95890.84;;;18.06
20867;BMP280;10593;48.398;10.698;2023-11-19T14:02:39;95887.34;;;18.07
20867;BMP280;10593;48.398;10.698;2023-11-19T14:05:07;95883.81;;;18.08
20867;BMP280;10593;48.398;10.698;2023-11-19T14:07:33;95887.25;;;18.08
20867;BMP280;10593;48.398;10.698;2023-11-19T14:09:59;95878.53;;;18.09
20867;BMP280;10593;48.398;10.698;2023-11-19T14:12:24;95888.03;;;18.10
20867;BMP280;10593;48.398;10.698;2023-11-19T14:14:50;95874.91;;;18.12
20867;BMP280;10593;48.398;10.698;2023-11-19T14:17:16;95878.28;;;18.14
20867;BMP280;10593;48.398;10.698;2023-11-19T14:19:42;95886.84;;;18.16
20867;BMP280;10593;48.398;10.698;2023-11-19T14:22:08;95886.00;;;18.15